Time;durP1;ratioP1;P1;durP2;ratioP2;P2;SDS_P1;SDS_P2;PMS_P1;PMS_P2;Temp;Humidity;BMP_temperature;BMP_pressure;BME280_temperature;BME280_humidity;BME280_pressure;Samples;Min_cycle;Max_cycle;Signal;HPM_P1;HPM_P2
2023/06/07 00:01:57;;;;;;;7.85;5.50;;;;;;;12.42;100.00;93973.25;4926229;29;20063;-56
2023/06/07 00:04:24;;;;;;;10.45;7.40;;;;;;;12.07;100.00;93978.28;4925976;29;20051;-61
2023/06/07 00:06:56;;;;;;;11.68;7.50;;;;;;;11.96;100.00;93982.00;4925866;29;20494;-54
2023/06/07 00:09:23;;;;;;;15.07;7.63;;;;;;;12.05;100.00;93984.19;4926861;29;20044;-55
2023/06/07 00:11:50;;;;;;;10.80;7.60;;;;;;;12.05;100.00;93988.94;4925488;29;20132;-57
2023/06/07 00:14:16;;;;;;;10.85;7.78;;;;;;;11.93;100.00;93987.59;4926801;29;20052;-60
2023/06/07 00:16:44;;;;;;;14.52;7.82;;;;;;;11.95;100.00;93985.97;4925834;29;20040;-58
2023/06/07 00:19:11;;;;;;;11.48;7.35;;;;;;;11.85;100.00;93981.44;4925482;29;20048;-57
2023/06/07 00:21:38;;;;;;;9.73;7.38;;;;;;;11.86;100.00;93980.22;4910112;29;20102;-55
2023/06/07 00:24:05;;;;;;;9.77;6.77;;;;;;;11.85;100.00;93980.63;4912247;29;20044;-62
2023/06/07 00:26:33;;;;;;;10.95;8.20;;;;;;;11.76;100.00;93983.94;4907936;29;20054;-53
2023/06/07 00:28:59;;;;;;;10.45;7.15;;;;;;;11.66;100.00;93982.19;4923107;29;20048;-60
2023/06/07 00:31:26;;;;;;;10.27;7.03;;;;;;;11.54;100.00;93983.56;4926017;29;20050;-59
2023/06/07 00:33:53;;;;;;;10.35;6.93;;;;;;;11.52;100.00;93983.97;4924288;29;20113;-55
2023/06/07 00:36:20;;;;;;;8.87;6.60;;;;;;;11.54;100.00;93978.84;4909247;29;20118;-59
2023/06/07 00:38:46;;;;;;;9.45;6.47;;;;;;;11.50;100.00;93978.13;4923774;29;20044;-55
2023/06/07 00:41:13;;;;;;;8.73;6.50;;;;;;;11.57;100.00;93980.00;4909039;29;20070;-56
2023/06/07 00:43:40;;;;;;;8.57;6.10;;;;;;;11.59;100.00;93981.13;4907838;29;20201;-59
2023/06/07 00:46:07;;;;;;;9.15;6.75;;;;;;;11.49;100.00;93981.28;4926168;29;20042;-59
2023/06/07 00:48:34;;;;;;;8.73;6.33;;;;;;;11.49;100.00;93979.34;4909624;29;20046;-60
2023/06/07 00:51:01;;;;;;;8.30;6.10;;;;;;;11.35;100.00;93980.34;4925904;29;20079;-56
2023/06/07 00:53:29;;;;;;;10.63;7.70;;;;;;;11.31;100.00;93987.13;4926458;29;20052;-56
2023/06/07 00:55:56;;;;;;;11.85;8.15;;;;;;;11.23;100.00;93978.22;4924098;29;20074;-55
2023/06/07 00:58:25;;;;;;;10.00;7.60;;;;;;;11.12;100.00;93983.88;4922802;29;20052;-54
2023/06/07 01:00:53;;;;;;;10.10;7.43;;;;;;;11.20;100.00;93970.78;4925587;29;20066;-54
2023/06/07 01:03:21;;;;;;;10.65;7.40;;;;;;;11.27;100.00;93980.88;4925549;29;20063;-59
2023/06/07 01:05:50;;;;;;;11.32;7.40;;;;;;;11.08;100.00;93979.63;4924925;29;20043;-58
2023/06/07 01:08:17;;;;;;;9.43;7.13;;;;;;;11.19;100.00;93981.00;4925021;29;20044;-60
2023/06/07 01:10:43;;;;;;;9.50;6.80;;;;;;;11.23;100.00;93983.72;4924754;29;20039;-56
2023/06/07 01:13:11;;;;;;;9.77;7.00;;;;;;;11.26;100.00;93982.84;4924142;29;20212;-60
2023/06/07 01:15:38;;;;;;;11.18;7.30;;;;;;;11.14;100.00;93975.22;4926560;29;20042;-60
2023/06/07 01:18:09;;;;;;;9.13;6.78;;;;;;;11.16;100.00;93975.56;4923920;29;20056;-55
2023/06/07 01:20:39;;;;;;;9.15;6.78;;;;;;;11.22;100.00;93979.41;4908999;29;20052;-58
2023/06/07 01:23:09;;;;;;;9.35;7.25;;;;;;;11.00;100.00;93967.97;4925930;29;20044;-58
2023/06/07 01:25:35;;;;;;;10.50;7.00;;;;;;;10.73;100.00;93974.28;4924943;29;20119;-61
2023/06/07 01:28:03;;;;;;;9.13;7.28;;;;;;;10.53;100.00;93979.66;4925629;29;20075;-58
2023/06/07 01:30:31;;;;;;;276.10;172.63;;;;;;;10.64;100.00;93970.50;4923535;29;20497;-57
2023/06/07 01:33:02;;;;;;;23.85;16.20;;;;;;;10.75;100.00;93971.91;4925263;29;20823;-61
2023/06/07 01:35:31;;;;;;;11.38;8.27;;;;;;;10.74;100.00;93970.34;4925446;29;20339;-57
2023/06/07 01:37:58;;;;;;;10.50;6.83;;;;;;;10.83;100.00;93961.59;4906307;29;20044;-59
2023/06/07 01:40:26;;;;;;;10.85;7.00;;;;;;;10.91;100.00;93959.50;4925331;29;20086;-58
2023/06/07 01:42:54;;;;;;;9.77;6.90;;;;;;;10.87;100.00;93969.78;4925087;29;20047;-59
2023/06/07 01:45:21;;;;;;;10.05;6.00;;;;;;;10.87;100.00;93965.06;4925986;29;20054;-57
2023/06/07 01:47:48;;;;;;;9.43;6.50;;;;;;;10.80;100.00;93965.16;4924433;29;20069;-59
2023/06/07 01:50:20;;;;;;;9.10;6.60;;;;;;;10.59;100.00;93960.78;4926158;29;20040;-53
2023/06/07 01:52:47;;;;;;;9.05;6.78;;;;;;;10.46;100.00;93976.25;4922994;29;20052;-61
2023/06/07 01:55:15;;;;;;;11.30;7.65;;;;;;;9.77;100.00;93965.31;4924587;29;20058;-57
2023/06/07 01:58:13;;;;;;;8.95;6.70;;;;;;;9.94;100.00;93971.78;4924864;29;20527;-57
2023/06/07 02:00:50;;;;;;;9.20;6.80;;;;;;;10.00;100.00;93962.72;4925083;29;20048;-59
2023/06/07 02:03:26;;;;;;;8.80;6.67;;;;;;;10.09;100.00;93964.94;4927846;29;20050;-58
2023/06/07 02:05:59;;;;;;;9.00;6.55;;;;;;;10.22;100.00;93964.38;4928859;29;20385;-57
2023/06/07 02:08:29;;;;;;;8.45;6.22;;;;;;;10.20;100.00;93962.84;4927379;29;20056;-59
2023/06/07 02:10:57;;;;;;;8.18;6.35;;;;;;;10.28;100.00;93969.03;4910622;29;20058;-55
2023/06/07 02:13:26;;;;;;;9.88;6.65;;;;;;;10.33;100.00;93968.56;4927946;29;20055;-57
2023/06/07 02:15:53;;;;;;;9.37;6.40;;;;;;;10.36;100.00;93967.75;4907830;29;20048;-58
2023/06/07 02:18:20;;;;;;;7.93;6.07;;;;;;;10.39;100.00;93966.16;4924372;29;20085;-55
2023/06/07 02:20:47;;;;;;;8.90;6.50;;;;;;;10.34;100.00;93969.34;4921552;29;21253;-61
2023/06/07 02:23:14;;;;;;;8.68;6.38;;;;;;;10.33;100.00;93971.31;4927087;29;20058;-56
2023/06/07 02:25:41;;;;;;;11.63;6.70;;;;;;;10.31;100.00;93965.47;4927481;29;20061;-59
2023/06/07 02:28:08;;;;;;;9.23;6.50;;;;;;;10.29;100.00;93965.06;4927997;29;20046;-57
2023/06/07 02:30:35;;;;;;;9.40;6.82;;;;;;;10.28;100.00;93966.28;4926136;29;20123;-56
2023/06/07 02:33:02;;;;;;;8.52;6.90;;;;;;;10.28;100.00;93960.78;4927698;29;20074;-59
2023/06/07 02:35:28;;;;;;;9.50;6.60;;;;;;;10.23;100.00;93957.72;4928048;29;20137;-62
2023/06/07 02:37:55;;;;;;;10.40;6.88;;;;;;;10.23;100.00;93958.50;4910654;29;20480;-58
2023/06/07 02:40:22;;;;;;;8.53;6.70;;;;;;;10.24;100.00;93960.06;4928254;29;20056;-63
2023/06/07 02:42:49;;;;;;;8.88;6.80;;;;;;;10.23;100.00;93958.50;4927856;29;20050;-57
2023/06/07 02:45:16;;;;;;;9.85;7.35;;;;;;;10.17;100.00;93958.16;4911769;29;20421;-57
2023/06/07 02:47:44;;;;;;;9.27;6.40;;;;;;;10.13;100.00;93957.44;4927544;29;20075;-59
2023/06/07 02:50:11;;;;;;;9.40;6.47;;;;;;;10.12;100.00;93957.84;4911330;29;20044;-60
2023/06/07 02:52:38;;;;;;;9.47;7.10;;;;;;;9.82;100.00;93956.66;4926431;29;20110;-58
2023/06/07 02:55:05;;;;;;;8.80;6.68;;;;;;;9.92;100.00;93949.47;4928393;29;20425;-61
2023/06/07 02:57:32;;;;;;;9.80;6.78;;;;;;;9.97;100.00;93947.06;4925759;29;20044;-57
2023/06/07 02:59:59;;;;;;;9.25;6.63;;;;;;;9.98;100.00;93948.63;4925278;29;20062;-55
2023/06/07 03:02:26;;;;;;;8.50;6.53;;;;;;;9.98;100.00;93948.63;4911306;29;20155;-58
2023/06/07 03:04:56;;;;;;;7.73;6.00;;;;;;;9.99;100.00;93949.41;4927043;29;20073;-57
2023/06/07 03:07:23;;;;;;;8.88;6.78;;;;;;;10.02;100.00;93958.75;4928303;29;20071;-61
2023/06/07 03:09:51;;;;;;;8.63;6.70;;;;;;;9.99;100.00;93954.88;4925074;29;20716;-57
2023/06/07 03:12:18;;;;;;;9.68;6.90;;;;;;;9.81;100.00;93949.63;4925454;29;20126;-57
2023/06/07 03:14:45;;;;;;;9.32;6.90;;;;;;;9.80;100.00;93957.06;4923198;29;20351;-57
2023/06/07 03:17:12;;;;;;;10.67;6.93;;;;;;;9.68;100.00;93948.59;4925870;29;20044;-61
2023/06/07 03:19:38;;;;;;;9.05;7.28;;;;;;;9.70;100.00;93954.44;4925689;29;20050;-54
2023/06/07 03:22:06;;;;;;;9.50;7.00;;;;;;;9.73;100.00;93956.38;4925775;29;20055;-62
2023/06/07 03:24:36;;;;;;;9.10;6.80;;;;;;;9.73;100.00;93954.41;4926082;29;20501;-57
2023/06/07 03:27:04;;;;;;;9.10;6.90;;;;;;;9.70;100.00;93959.91;4927602;29;20400;-57
2023/06/07 03:29:31;;;;;;;11.03;7.00;;;;;;;9.66;100.00;93957.22;4925869;29;20039;-61
2023/06/07 03:31:58;;;;;;;10.80;7.70;;;;;;;9.71;100.00;93954.03;4924573;29;20747;-59
2023/06/07 03:34:29;;;;;;;12.50;8.30;;;;;;;9.69;100.00;93963.84;4908790;29;20078;-56
2023/06/07 03:36:56;;;;;;;8.82;6.53;;;;;;;9.75;100.00;93954.75;4927362;29;20507;-59
2023/06/07 03:39:23;;;;;;;9.57;6.70;;;;;;;9.76;100.00;93944.59;4927679;29;20055;-62
2023/06/07 03:41:50;;;;;;;8.60;6.50;;;;;;;9.82;100.00;93951.19;4925153;29;20178;-57
2023/06/07 03:44:16;;;;;;;10.95;7.03;;;;;;;9.66;100.00;93946.28;4927961;29;20047;-61
2023/06/07 03:46:43;;;;;;;9.70;7.18;;;;;;;9.31;100.00;93950.16;4922668;29;20740;-57
2023/06/07 03:49:10;;;;;;;10.68;8.00;;;;;;;9.30;100.00;93959.56;4926450;29;20055;-58
2023/06/07 03:51:38;;;;;;;10.23;7.72;;;;;;;9.33;100.00;93958.75;4926343;29;20052;-55
2023/06/07 03:54:05;;;;;;;10.00;7.33;;;;;;;9.43;100.00;93955.13;4925852;29;20051;-59
2023/06/07 03:56:32;;;;;;;9.80;7.70;;;;;;;9.62;100.00;93939.25;4924253;29;20051;-60
2023/06/07 03:59:01;;;;;;;9.57;7.43;;;;;;;9.74;100.00;93942.25;4906524;29;20044;-57
2023/06/07 04:01:28;;;;;;;11.98;8.13;;;;;;;9.84;100.00;93943.31;4894963;29;20047;-59
2023/06/07 04:03:55;;;;;;;10.13;7.50;;;;;;;9.93;100.00;93942.81;4925597;29;20048;-60
2023/06/07 04:06:24;;;;;;;11.83;7.77;;;;;;;9.94;100.00;93947.91;4927323;29;20409;-60
2023/06/07 04:08:59;;;;;;;10.30;7.70;;;;;;;10.01;100.00;93947.03;4925061;29;20051;-58
2023/06/07 04:11:26;;;;;;;11.52;7.97;;;;;;;10.14;100.00;93939.00;4909947;29;20051;-58
2023/06/07 04:13:54;;;;;;;9.30;6.70;;;;;;;10.19;100.00;93938.56;4910113;29;20065;-57
2023/06/07 04:16:20;;;;;;;8.05;6.30;;;;;;;10.32;100.00;93956.06;4927308;29;20083;-58
2023/06/07 04:18:47;;;;;;;9.33;7.50;;;;;;;9.82;100.00;93951.19;4924301;29;20050;-60
2023/06/07 04:21:14;;;;;;;11.93;8.25;;;;;;;9.83;100.00;93946.47;4909120;29;20217;-56
2023/06/07 04:23:41;;;;;;;10.93;7.90;;;;;;;10.12;100.00;93947.69;4925658;29;20048;-60
2023/06/07 04:26:08;;;;;;;10.75;7.60;;;;;;;10.22;100.00;93939.69;4925924;29;20066;-56
2023/06/07 04:28:35;;;;;;;10.35;7.28;;;;;;;10.62;100.00;93940.72;4924952;29;20058;-60
2023/06/07 04:31:02;;;;;;;10.80;7.73;;;;;;;10.96;100.00;93943.31;4924958;29;20044;-59
2023/06/07 04:33:29;;;;;;;10.07;7.53;;;;;;;10.94;100.00;93936.69;4927146;29;20066;-61
2023/06/07 04:35:58;;;;;;;10.10;7.60;;;;;;;11.20;100.00;93946.84;4906845;29;20092;-60
2023/06/07 04:38:25;;;;;;;9.73;7.20;;;;;;;11.31;100.00;93943.94;4927377;29;20048;-58
2023/06/07 04:40:53;;;;;;;12.70;8.05;;;;;;;11.30;100.00;93949.84;4908822;29;20044;-58
2023/06/07 04:43:20;;;;;;;10.93;8.77;;;;;;;11.04;100.00;93952.22;4926660;29;20078;-61
2023/06/07 04:45:54;;;;;;;12.25;8.00;;;;;;;10.76;100.00;93950.72;4925221;29;20429;-58
2023/06/07 04:48:27;;;;;;;10.45;8.68;;;;;;;10.77;100.00;93949.53;4910757;29;20048;-60
2023/06/07 04:51:04;;;;;;;12.35;8.55;;;;;;;10.95;100.00;93947.28;4924438;29;20051;-61
2023/06/07 04:53:35;;;;;;;10.70;8.05;;;;;;;11.11;100.00;93956.84;4927526;29;20048;-59
2023/06/07 04:56:03;;;;;;;11.60;7.87;;;;;;;11.22;100.00;93949.19;4925850;29;20099;-58
2023/06/07 04:58:33;;;;;;;10.65;7.97;;;;;;;10.85;100.00;93958.44;4926610;29;20056;-61
2023/06/07 05:01:00;;;;;;;10.60;8.23;;;;;;;10.60;100.00;93959.56;4890668;29;20054;-61
2023/06/07 05:03:26;;;;;;;12.88;8.70;;;;;;;10.53;100.00;93954.19;4924753;29;20085;-58
2023/06/07 05:05:53;;;;;;;10.85;8.25;;;;;;;10.94;100.00;93961.41;4922812;29;20051;-55
2023/06/07 05:08:21;;;;;;;10.73;8.40;;;;;;;11.23;100.00;93952.69;4926178;29;20252;-58
2023/06/07 05:10:48;;;;;;;11.82;8.60;;;;;;;11.46;100.00;93952.69;4923130;29;20081;-58
2023/06/07 05:13:15;;;;;;;11.85;8.60;;;;;;;11.68;100.00;93952.28;4927732;29;20056;-60
2023/06/07 05:15:44;;;;;;;9.73;7.82;;;;;;;11.85;100.00;93959.44;4925054;29;20040;-58
2023/06/07 05:18:12;;;;;;;12.18;8.48;;;;;;;12.72;100.00;93964.72;4926174;29;20036;-64
2023/06/07 05:20:39;;;;;;;10.17;8.60;;;;;;;15.31;100.00;93949.34;4922520;29;20062;-60
2023/06/07 05:23:06;;;;;;;11.00;7.90;;;;;;;17.32;90.16;93944.81;4925994;29;20054;-64
2023/06/07 05:25:33;;;;;;;11.48;7.28;;;;;;;19.20;78.04;93936.16;4925170;29;20129;-57
2023/06/07 05:27:59;;;;;;;8.93;6.95;;;;;;;20.53;71.75;93935.03;4925547;29;20043;-60
2023/06/07 05:30:39;;;;;;;12.40;7.32;;;;;;;21.58;63.38;93936.44;4924469;29;20539;-61
2023/06/07 05:33:06;;;;;;;9.90;6.37;;;;;;;21.94;60.57;93939.97;4926006;29;20073;-60
2023/06/07 05:35:33;;;;;;;7.57;6.25;;;;;;;21.26;61.81;93938.25;4924295;29;20061;-56
2023/06/07 05:38:01;;;;;;;8.30;6.30;;;;;;;20.64;63.48;93932.44;4925203;29;20047;-59
2023/06/07 05:40:27;;;;;;;7.80;6.55;;;;;;;20.75;64.42;93937.47;4924436;29;20043;-59
2023/06/07 05:42:56;;;;;;;8.82;6.35;;;;;;;22.00;60.51;93935.19;4923775;29;20046;-59
2023/06/07 05:45:23;;;;;;;9.80;7.03;;;;;;;23.32;54.97;93931.13;4907309;29;20631;-60
2023/06/07 05:47:50;;;;;;;8.52;5.93;;;;;;;24.16;51.48;93922.41;4923322;29;20040;-58
2023/06/07 05:50:20;;;;;;;9.07;6.32;;;;;;;24.62;49.37;93926.91;4925767;29;20048;-59
2023/06/07 05:52:56;;;;;;;8.13;5.90;;;;;;;25.20;47.70;93934.09;4922389;29;20052;-59
2023/06/07 05:55:28;;;;;;;10.32;5.40;;;;;;;25.85;45.91;93938.59;4925635;29;20056;-59
2023/06/07 05:58:00;;;;;;;6.63;5.07;;;;;;;25.49;46.28;93930.78;4924087;29;20404;-59
2023/06/07 06:00:27;;;;;;;5.60;5.00;;;;;;;26.88;44.26;93929.97;4907533;29;20044;-59
2023/06/07 06:02:54;;;;;;;6.13;4.72;;;;;;;26.02;45.13;93930.91;4892435;29;20163;-62
2023/06/07 06:05:21;;;;;;;5.85;4.38;;;;;;;26.65;43.85;93934.97;4923401;29;20401;-59
2023/06/07 06:07:48;;;;;;;5.63;4.80;;;;;;;25.87;45.65;93938.84;4925318;29;20537;-60
2023/06/07 06:10:15;;;;;;;5.43;4.10;;;;;;;26.99;42.72;93933.97;4925169;29;20056;-58
2023/06/07 06:12:41;;;;;;;6.22;4.50;;;;;;;25.01;47.49;93939.44;4925153;29;20060;-58
2023/06/07 06:15:09;;;;;;;6.10;4.93;;;;;;;24.65;48.35;93941.94;4924872;29;20457;-59
2023/06/07 06:17:35;;;;;;;5.35;4.63;;;;;;;25.02;47.67;93938.94;4906266;29;20048;-60
2023/06/07 06:20:03;;;;;;;7.22;4.70;;;;;;;25.56;45.88;93940.72;4924206;29;20123;-59
2023/06/07 06:22:30;;;;;;;7.20;4.17;;;;;;;25.90;45.50;93944.22;4925148;29;20404;-64
2023/06/07 06:24:57;;;;;;;6.60;4.30;;;;;;;26.83;43.35;93944.84;4923733;29;20059;-61
2023/06/07 06:27:24;;;;;;;6.43;5.10;;;;;;;28.04;41.89;93938.44;4924336;29;20054;-59
2023/06/07 06:29:50;;;;;;;9.48;5.10;;;;;;;28.97;39.00;93941.06;4923581;29;20051;-58
2023/06/07 06:32:17;;;;;;;5.65;3.90;;;;;;;29.82;37.93;93943.31;4924802;29;20062;-61
2023/06/07 06:34:44;;;;;;;6.40;4.53;;;;;;;29.74;36.76;93940.38;4924668;29;20090;-58
2023/06/07 06:37:11;;;;;;;5.28;4.40;;;;;;;29.57;36.99;93949.13;4922587;29;20047;-62
2023/06/07 06:39:37;;;;;;;4.88;3.95;;;;;;;30.72;35.73;93941.53;4903365;29;20063;-59
2023/06/07 06:42:05;;;;;;;4.50;3.70;;;;;;;32.26;33.00;93934.44;4906707;29;20048;-59
2023/06/07 06:44:32;;;;;;;7.68;4.28;;;;;;;32.22;31.77;93945.41;4925614;29;20046;-59
2023/06/07 06:47:00;;;;;;;5.73;4.30;;;;;;;30.01;34.83;93946.81;4924785;29;20066;-62
2023/06/07 06:49:27;;;;;;;4.75;3.60;;;;;;;31.49;32.52;93945.19;4896639;29;20070;-61
2023/06/07 06:51:53;;;;;;;4.82;3.72;;;;;;;28.73;37.87;93939.88;4927826;29;20055;-62
2023/06/07 06:54:21;;;;;;;6.10;3.92;;;;;;;29.27;36.39;93946.53;4911147;29;20055;-60
2023/06/07 06:56:48;;;;;;;4.88;3.40;;;;;;;31.51;33.20;93936.13;4927221;29;20062;-59
2023/06/07 06:59:14;;;;;;;6.40;4.07;;;;;;;28.67;36.73;93948.44;4928811;29;20056;-62
2023/06/07 07:01:46;;;;;;;6.97;4.10;;;;;;;29.68;35.11;93939.69;4927864;29;20055;-65
2023/06/07 07:04:15;;;;;;;6.45;4.32;;;;;;;27.94;37.25;93943.66;4926473;29;20059;-59
2023/06/07 07:06:42;;;;;;;6.22;3.47;;;;;;;30.93;34.15;93944.44;4926131;29;20077;-65
2023/06/07 07:09:10;;;;;;;5.00;3.65;;;;;;;32.01;31.88;93946.19;4928382;29;20102;-60
2023/06/07 07:11:37;;;;;;;7.67;3.20;;;;;;;30.55;33.22;93944.72;4908840;29;20055;-59
2023/06/07 07:14:04;;;;;;;5.40;3.20;;;;;;;30.52;33.81;93945.06;4927840;29;20054;-62
2023/06/07 07:16:31;;;;;;;4.20;3.53;;;;;;;31.54;32.07;93946.38;4911167;29;20043;-60
2023/06/07 07:19:02;;;;;;;6.80;3.05;;;;;;;34.32;27.87;93931.84;4926769;29;20601;-58
2023/06/07 07:21:30;;;;;;;5.35;3.58;;;;;;;33.37;28.79;93937.34;4926525;29;21074;-64
2023/06/07 07:23:56;;;;;;;5.40;3.20;;;;;;;33.27;29.38;93944.91;4927076;29;20055;-63
2023/06/07 07:26:23;;;;;;;4.70;2.83;;;;;;;34.80;26.33;93934.72;4927089;29;20058;-60
2023/06/07 07:28:52;;;;;;;6.07;3.25;;;;;;;35.03;25.70;93946.03;4911412;29;20046;-60
2023/06/07 07:31:19;;;;;;;4.68;3.50;;;;;;;34.57;25.67;93941.25;4925259;29;20043;-62
2023/06/07 07:33:46;;;;;;;5.47;3.40;;;;;;;35.51;24.80;93943.09;4927548;29;20090;-61
2023/06/07 07:36:13;;;;;;;6.43;3.20;;;;;;;35.83;24.01;93935.09;4927901;29;20481;-56
2023/06/07 07:38:40;;;;;;;4.90;3.03;;;;;;;35.00;24.24;93944.34;4924574;29;20489;-57
2023/06/07 07:41:07;;;;;;;3.80;2.97;;;;;;;32.28;27.15;93948.06;4923492;29;20069;-57
2023/06/07 07:43:34;;;;;;;4.15;2.95;;;;;;;33.16;27.20;93943.19;4908997;29;20058;-61
2023/06/07 07:46:04;;;;;;;4.97;3.20;;;;;;;31.20;29.10;93942.25;4925038;29;20071;-61
2023/06/07 07:48:31;;;;;;;3.87;3.10;;;;;;;31.70;29.03;93942.34;4925977;29;20052;-58
2023/06/07 07:50:57;;;;;;;4.53;3.13;;;;;;;30.39;30.33;93938.13;4923827;29;20064;-61
2023/06/07 07:53:24;;;;;;;4.38;3.67;;;;;;;26.51;36.54;93944.50;4928084;29;20427;-61
2023/06/07 07:55:51;;;;;;;5.35;3.20;;;;;;;31.65;29.64;93941.19;4924204;29;20048;-58
2023/06/07 07:58:18;;;;;;;5.05;3.20;;;;;;;32.53;27.27;93939.88;4925593;29;20044;-62
2023/06/07 08:00:44;;;;;;;6.63;3.70;;;;;;;27.85;32.90;93939.13;4925463;29;20054;-64
2023/06/07 08:03:12;;;;;;;5.70;3.40;;;;;;;33.00;27.72;93935.91;4924330;29;20054;-59
2023/06/07 08:05:39;;;;;;;5.53;3.40;;;;;;;33.88;25.74;93943.44;4910186;29;20047;-58
2023/06/07 08:08:06;;;;;;;5.60;3.50;;;;;;;32.33;27.61;93938.63;4915650;29;20051;-61
2023/06/07 08:10:33;;;;;;;4.65;3.40;;;;;;;30.40;29.08;93938.88;4929625;29;20489;-56
2023/06/07 08:13:00;;;;;;;4.83;3.23;;;;;;;32.62;27.41;93937.28;4931316;29;20040;-59
2023/06/07 08:15:27;;;;;;;5.43;3.53;;;;;;;30.82;28.57;93941.84;4920474;29;20051;-61
2023/06/07 08:17:53;;;;;;;5.05;3.40;;;;;;;30.60;29.36;93943.84;4929799;29;20056;-59
2023/06/07 08:20:20;;;;;;;4.57;3.53;;;;;;;32.32;27.24;93939.97;4931391;29;20070;-58
2023/06/07 08:22:50;;;;;;;6.93;3.28;;;;;;;33.90;25.80;93933.00;4931790;29;20046;-57
2023/06/07 08:25:17;;;;;;;4.47;3.03;;;;;;;35.59;23.78;93929.53;4932181;29;20126;-65
2023/06/07 08:27:46;;;;;;;6.13;3.40;;;;;;;35.76;23.00;93933.81;4931790;29;20062;-58
2023/06/07 08:30:14;;;;;;;5.40;3.40;;;;;;;32.22;26.02;93934.78;4932464;29;20051;-58
2023/06/07 08:32:42;;;;;;;4.20;3.22;;;;;;;31.23;27.80;93927.00;4931777;29;20051;-58
2023/06/07 08:35:10;;;;;;;4.88;3.50;;;;;;;33.75;25.22;93930.94;4931196;29;20051;-58
2023/06/07 08:37:38;;;;;;;5.37;3.60;;;;;;;33.41;24.60;93928.44;4931665;29;20052;-57
2023/06/07 08:40:05;;;;;;;6.07;3.92;;;;;;;29.72;28.41;93933.72;4910316;29;20043;-60
2023/06/07 08:42:33;;;;;;;5.03;3.80;;;;;;;31.68;26.44;93930.81;4922296;29;20130;-57
2023/06/07 08:45:00;;;;;;;6.10;3.67;;;;;;;32.83;25.04;93930.75;4930964;29;21715;-58
2023/06/07 08:47:29;;;;;;;4.50;3.90;;;;;;;29.70;27.88;93936.31;4931893;29;20052;-58
2023/06/07 08:49:57;;;;;;;7.27;4.00;;;;;;;30.40;27.48;93927.53;4931489;29;20047;-61
2023/06/07 08:52:24;;;;;;;6.35;3.40;;;;;;;31.93;25.30;93925.50;4914169;29;20398;-59
2023/06/07 08:54:55;;;;;;;5.75;3.65;;;;;;;32.45;25.39;93932.06;4914737;29;20122;-60
2023/06/07 08:57:22;;;;;;;5.43;3.30;;;;;;;34.21;22.87;93921.63;4931513;29;20052;-61
2023/06/07 08:59:49;;;;;;;4.40;3.55;;;;;;;33.95;22.70;93923.53;4931494;29;20056;-63
2023/06/07 09:02:17;;;;;;;5.53;3.60;;;;;;;32.99;23.75;93925.84;4931747;29;20047;-59
2023/06/07 09:04:44;;;;;;;5.32;3.47;;;;;;;34.32;23.00;93915.50;4914262;29;20063;-59
2023/06/07 09:07:10;;;;;;;5.22;3.45;;;;;;;34.09;22.75;93924.06;4931502;29;20159;-58
2023/06/07 09:09:41;;;;;;;6.43;3.50;;;;;;;35.41;20.89;93919.38;4930408;29;20047;-59
2023/06/07 09:12:08;;;;;;;5.38;3.35;;;;;;;35.25;20.60;93923.69;4931220;29;20054;-58
2023/06/07 09:14:35;;;;;;;5.10;3.47;;;;;;;36.85;20.76;93917.88;4930904;29;20481;-57
2023/06/07 09:17:02;;;;;;;5.63;3.25;;;;;;;36.67;20.96;93920.00;4931352;29;20044;-58
2023/06/07 09:19:35;;;;;;;4.25;3.20;;;;;;;33.19;23.38;93921.38;4931193;29;20055;-63
2023/06/07 09:22:08;;;;;;;5.82;3.65;;;;;;;33.91;22.84;93916.69;4930250;29;20099;-60
2023/06/07 09:24:36;;;;;;;4.13;3.45;;;;;;;32.76;24.00;93922.94;4930608;29;20118;-58
2023/06/07 09:27:04;;;;;;;5.90;3.80;;;;;;;33.29;23.43;93927.28;4931396;29;20400;-58
2023/06/07 09:29:42;;;;;;;5.43;3.58;;;;;;;35.09;21.21;93917.28;4929739;29;20047;-60
2023/06/07 09:32:23;;;;;;;6.45;4.00;;;;;;;35.82;20.54;93908.63;4930434;29;20114;-62
2023/06/07 09:34:53;;;;;;;4.50;3.20;;;;;;;37.38;19.50;93915.66;4930614;29;20043;-58
2023/06/07 09:37:22;;;;;;;4.10;3.40;;;;;;;33.73;22.06;93915.75;4931262;29;20528;-58
2023/06/07 09:39:53;;;;;;;4.47;3.60;;;;;;;26.37;30.91;93918.22;4930278;29;20051;-61
2023/06/07 09:42:20;;;;;;;5.05;4.05;;;;;;;26.40;31.04;93928.44;4931123;29;20059;-63
2023/06/07 09:44:48;;;;;;;4.97;3.50;;;;;;;30.56;26.33;93920.75;4930220;29;20114;-58
2023/06/07 09:47:22;;;;;;;5.78;3.53;;;;;;;33.99;22.78;93912.50;4931151;29;20095;-60
2023/06/07 09:49:54;;;;;;;4.25;3.40;;;;;;;32.77;23.52;93919.53;4930605;29;20043;-58
2023/06/07 09:52:22;;;;;;;5.70;4.30;;;;;;;27.39;29.42;93921.13;4930707;29;20083;-65
2023/06/07 09:54:49;;;;;;;7.13;3.55;;;;;;;30.87;25.32;93912.63;4930562;29;20072;-61
2023/06/07 09:57:25;;;;;;;5.18;4.07;;;;;;;28.87;27.09;93912.44;4914236;29;20054;-58
2023/06/07 10:00:02;;;;;;;7.00;3.90;;;;;;;29.52;27.23;93918.09;4930462;29;20044;-58
2023/06/07 10:02:30;;;;;;;5.53;4.00;;;;;;;28.46;28.02;93905.81;4929381;29;20069;-63
2023/06/07 10:04:57;;;;;;;6.23;4.40;;;;;;;24.96;32.04;93907.28;4931034;29;20066;-58
2023/06/07 10:07:34;;;;;;;6.32;4.20;;;;;;;26.52;30.80;93909.41;4931356;29;20054;-57
2023/06/07 10:10:02;;;;;;;5.60;4.75;;;;;;;28.80;28.34;93907.44;4930748;29;21450;-62
2023/06/07 10:12:32;;;;;;;6.35;4.60;;;;;;;30.71;25.61;93897.53;4931309;29;20044;-61
2023/06/07 10:15:03;;;;;;;5.22;4.00;;;;;;;33.29;23.12;93899.59;4930058;29;21569;-58
2023/06/07 10:17:43;;;;;;;5.47;3.90;;;;;;;33.06;22.92;93908.03;4931261;29;20051;-59
2023/06/07 10:20:24;;;;;;;5.13;3.97;;;;;;;29.23;26.76;93904.44;4930487;29;20106;-58
2023/06/07 10:22:58;;;;;;;5.55;4.30;;;;;;;30.63;24.98;93902.34;4933782;29;20489;-60
2023/06/07 10:25:30;;;;;;;6.30;4.22;;;;;;;29.93;25.65;93900.66;4935271;29;20062;-57
2023/06/07 10:28:11;;;;;;;6.95;4.00;;;;;;;31.02;23.89;93898.63;4934732;29;20047;-61
2023/06/07 10:30:59;;;;;;;5.07;3.83;;;;;;;31.23;24.26;93887.31;4902710;29;20063;-60
2023/06/07 10:33:26;;;;;;;5.28;4.30;;;;;;;31.24;23.58;93894.47;4935031;29;20059;-58
2023/06/07 10:35:54;;;;;;;4.90;3.85;;;;;;;32.89;22.20;93883.00;4934387;29;25746;-62
2023/06/07 10:38:21;;;;;;;5.57;4.15;;;;;;;31.72;22.61;93885.81;4934882;29;20440;-61
2023/06/07 10:40:48;;;;;;;5.63;4.28;;;;;;;30.32;23.55;93878.56;4934338;29;20393;-58
2023/06/07 10:43:15;;;;;;;5.87;4.10;;;;;;;29.92;24.55;93887.06;4934923;29;20040;-61
2023/06/07 10:45:42;;;;;;;6.47;4.63;;;;;;;29.35;23.94;93876.00;4934242;29;20077;-58
2023/06/07 10:48:33;;;;;;;5.07;4.10;;;;;;;30.74;23.69;93879.41;4918148;29;20104;-57
2023/06/07 10:51:00;;;;;;;6.72;4.35;;;;;;;30.05;24.26;93881.41;4933594;29;20062;-57
2023/06/07 10:53:51;;;;;;;5.40;4.40;;;;;;;28.61;27.09;93888.44;4934807;29;20404;-59
2023/06/07 10:56:34;;;;;;;6.00;4.37;;;;;;;29.22;27.48;93880.34;4933805;29;21100;-57
2023/06/07 10:59:13;;;;;;;10.43;4.72;;;;;;;25.48;32.02;93886.31;4933749;29;20040;-58
2023/06/07 11:01:41;;;;;;;6.78;4.53;;;;;;;25.46;31.57;93889.63;4931930;29;20508;-61
2023/06/07 11:04:57;;;;;;;6.95;4.78;;;;;;;27.46;29.35;93889.53;4934475;29;20048;-57
2023/06/07 11:07:30;;;;;;;7.55;4.72;;;;;;;27.55;28.16;93888.44;4921217;29;21694;-60
2023/06/07 11:10:02;;;;;;;7.93;4.90;;;;;;;24.50;33.16;93897.28;4933902;29;20043;-57
2023/06/07 11:12:43;;;;;;;7.68;5.25;;;;;;;25.04;31.73;93893.50;4934334;29;20055;-58
2023/06/07 11:15:16;;;;;;;7.28;4.70;;;;;;;26.56;30.04;93881.78;4933155;29;20365;-59
2023/06/07 11:17:59;;;;;;;7.05;4.70;;;;;;;26.49;29.58;93882.34;4933923;29;20059;-57
2023/06/07 11:20:36;;;;;;;6.70;4.78;;;;;;;27.02;29.00;93885.03;4931375;29;20147;-58
2023/06/07 11:23:29;;;;;;;7.00;5.13;;;;;;;25.59;30.30;93883.47;4933095;29;20060;-62
2023/06/07 11:26:06;;;;;;;7.15;5.00;;;;;;;25.03;31.26;93877.91;4921211;29;20043;-57
2023/06/07 11:28:37;;;;;;;7.03;5.20;;;;;;;26.03;30.00;93875.41;4916447;29;20051;-57
2023/06/07 11:31:11;;;;;;;7.57;5.03;;;;;;;26.36;28.72;93871.69;4934084;29;20044;-60
2023/06/07 11:33:41;;;;;;;6.40;4.80;;;;;;;27.74;26.82;93874.38;4932597;29;20511;-57
2023/06/07 11:36:09;;;;;;;6.93;5.03;;;;;;;27.63;27.42;93860.41;4934121;29;20047;-57
2023/06/07 11:38:37;;;;;;;8.75;4.82;;;;;;;27.48;27.92;93861.56;4933157;29;20063;-60